Main page
METAR-TAF:

METAR-TAF

Airports :

Cork Airport

Cork, Ireland

latitude: 51-51N, longitude: 008-29W, elevation: 153 m

Current weather observation

The report was made 39 minutes ago, at 21:30 UTC
Wind 6 kt from the West/Northwest
Temperature 4°C
Humidity 93%
Pressure 1002 hPa
Visibility 10 km or more
Scattered clouds at a height of 1400 ft
Scattered clouds at a height of 5000 ft

METAR: EICK 222130Z 30006KT 9999 SCT014 SCT050 04/03 Q1002 NOSIG

Time: 22:09 (22:09 UTC)

Forecast

The report was made 3 hours and 8 minutes ago, at 19:01 UTC
Forecast valid from 22 at 19 UTC to 23 at 18 UTC
Wind 5 kt from the West/Northwest
Visibility 10 km or more
Broken clouds at a height of 600 ft
Becoming
from 22 at 19 UTC to 22 at 21 UTC
Scattered clouds at a height of 1000 ft
Broken clouds at a height of 2500 ft
Temporary
from 23 at 15 UTC to 23 at 18 UTC
Visibility: 5000 m
Broken clouds at a height of 1000 ft
light rain

TAF: EICK 221901Z 2219/2318 30005KT 9999 BKN006 BECMG 2219/2221 SCT010 BKN025 TEMPO 2315/2318 5000 -RA BKN010

Weather observations and forecasts of more than 4000 airports (METAR and TAF reports).

The available stations are represented by yellow and red dots on the map.

Hover mouse over dot to see the name of the station.

Then click to see weather observations and forecasts.

To change the map : click on the green buttons with a black cross to zoom in, on the green button with a dash to zoom out, or on the green arrows for adjacent maps.


METAR-TAF: